sensor_id;sensor_type;location;lat;lon;timestamp;P1;durP1;ratioP1;P2;durP2;ratioP2
4391;SDS011;2210;51.938;8.488;2023-08-08T00:02:12;6.60;;;3.83;;
4391;SDS011;2210;51.938;8.488;2023-08-08T00:06:13;6.00;;;3.30;;
4391;SDS011;2210;51.938;8.488;2023-08-08T00:10:16;5.03;;;2.80;;
4391;SDS011;2210;51.938;8.488;2023-08-08T00:14:19;4.17;;;2.87;;
4391;SDS011;2210;51.938;8.488;2023-08-08T00:18:20;5.03;;;3.07;;
4391;SDS011;2210;51.938;8.488;2023-08-08T00:22:26;3.37;;;2.10;;
4391;SDS011;2210;51.938;8.488;2023-08-08T00:26:29;2.30;;;1.77;;
4391;SDS011;2210;51.938;8.488;2023-08-08T00:30:45;3.23;;;2.37;;
4391;SDS011;2210;51.938;8.488;2023-08-08T00:34:45;5.20;;;2.93;;
4391;SDS011;2210;51.938;8.488;2023-08-08T00:38:58;6.50;;;2.87;;
4391;SDS011;2210;51.938;8.488;2023-08-08T00:42:58;7.70;;;2.90;;
4391;SDS011;2210;51.938;8.488;2023-08-08T00:47:01;3.20;;;2.43;;
4391;SDS011;2210;51.938;8.488;2023-08-08T00:51:05;4.97;;;2.27;;
4391;SDS011;2210;51.938;8.488;2023-08-08T00:55:11;4.63;;;2.40;;
4391;SDS011;2210;51.938;8.488;2023-08-08T00:59:15;2.30;;;2.10;;
4391;SDS011;2210;51.938;8.488;2023-08-08T01:03:18;5.13;;;2.43;;
4391;SDS011;2210;51.938;8.488;2023-08-08T01:07:28;2.23;;;1.93;;
4391;SDS011;2210;51.938;8.488;2023-08-08T01:11:39;3.67;;;2.00;;
4391;SDS011;2210;51.938;8.488;2023-08-08T01:15:40;6.00;;;2.80;;
4391;SDS011;2210;51.938;8.488;2023-08-08T01:19:46;3.43;;;2.60;;
4391;SDS011;2210;51.938;8.488;2023-08-08T01:24:11;3.27;;;1.80;;
4391;SDS011;2210;51.938;8.488;2023-08-08T01:28:15;3.10;;;2.20;;
4391;SDS011;2210;51.938;8.488;2023-08-08T01:32:15;2.30;;;2.10;;
4391;SDS011;2210;51.938;8.488;2023-08-08T01:36:29;9.40;;;3.13;;
4391;SDS011;2210;51.938;8.488;2023-08-08T01:40:48;13.10;;;3.07;;
4391;SDS011;2210;51.938;8.488;2023-08-08T01:44:53;7.70;;;2.83;;
4391;SDS011;2210;51.938;8.488;2023-08-08T01:48:54;6.30;;;2.47;;
4391;SDS011;2210;51.938;8.488;2023-08-08T01:52:58;5.60;;;2.17;;
4391;SDS011;2210;51.938;8.488;2023-08-08T01:56:58;8.00;;;2.50;;
4391;SDS011;2210;51.938;8.488;2023-08-08T02:00:58;6.63;;;2.60;;
4391;SDS011;2210;51.938;8.488;2023-08-08T02:04:58;4.83;;;2.27;;
4391;SDS011;2210;51.938;8.488;2023-08-08T02:08:59;5.80;;;2.67;;
4391;SDS011;2210;51.938;8.488;2023-08-08T02:12:59;5.40;;;2.97;;
4391;SDS011;2210;51.938;8.488;2023-08-08T02:17:01;4.00;;;2.90;;
4391;SDS011;2210;51.938;8.488;2023-08-08T02:21:08;5.50;;;3.00;;
4391;SDS011;2210;51.938;8.488;2023-08-08T02:25:12;3.20;;;2.60;;
4391;SDS011;2210;51.938;8.488;2023-08-08T02:29:12;5.50;;;2.60;;
4391;SDS011;2210;51.938;8.488;2023-08-08T02:33:31;4.70;;;2.60;;
4391;SDS011;2210;51.938;8.488;2023-08-08T02:37:31;5.37;;;2.53;;
4391;SDS011;2210;51.938;8.488;2023-08-08T02:41:44;7.77;;;2.27;;
4391;SDS011;2210;51.938;8.488;2023-08-08T02:45:47;6.43;;;2.93;;
4391;SDS011;2210;51.938;8.488;2023-08-08T02:49:47;5.47;;;2.50;;
4391;SDS011;2210;51.938;8.488;2023-08-08T02:53:48;5.50;;;3.07;;
4391;SDS011;2210;51.938;8.488;2023-08-08T02:57:51;6.17;;;2.80;;
4391;SDS011;2210;51.938;8.488;2023-08-08T03:01:51;4.10;;;2.63;;
4391;SDS011;2210;51.938;8.488;2023-08-08T03:05:55;5.57;;;2.80;;
4391;SDS011;2210;51.938;8.488;2023-08-08T03:09:55;5.73;;;3.07;;
4391;SDS011;2210;51.938;8.488;2023-08-08T03:13:55;5.00;;;3.47;;
4391;SDS011;2210;51.938;8.488;2023-08-08T03:17:56;5.57;;;3.40;;
4391;SDS011;2210;51.938;8.488;2023-08-08T03:21:56;5.47;;;3.50;;
4391;SDS011;2210;51.938;8.488;2023-08-08T03:26:05;6.57;;;3.30;;
4391;SDS011;2210;51.938;8.488;2023-08-08T03:30:06;4.20;;;3.03;;
4391;SDS011;2210;51.938;8.488;2023-08-08T03:34:10;5.40;;;2.93;;
4391;SDS011;2210;51.938;8.488;2023-08-08T03:38:14;4.07;;;2.40;;
4391;SDS011;2210;51.938;8.488;2023-08-08T03:42:14;2.70;;;2.20;;
4391;SDS011;2210;51.938;8.488;2023-08-08T03:46:14;3.30;;;2.70;;
4391;SDS011;2210;51.938;8.488;2023-08-08T03:50:14;2.47;;;2.27;;
4391;SDS011;2210;51.938;8.488;2023-08-08T03:54:21;3.30;;;2.60;;
4391;SDS011;2210;51.938;8.488;2023-08-08T03:58:27;4.10;;;2.37;;
4391;SDS011;2210;51.938;8.488;2023-08-08T04:02:40;4.23;;;2.17;;
4391;SDS011;2210;51.938;8.488;2023-08-08T04:06:43;3.73;;;2.97;;
4391;SDS011;2210;51.938;8.488;2023-08-08T04:10:46;3.10;;;2.80;;
4391;SDS011;2210;51.938;8.488;2023-08-08T04:14:50;2.70;;;2.50;;
4391;SDS011;2210;51.938;8.488;2023-08-08T04:18:50;4.70;;;3.87;;
4391;SDS011;2210;51.938;8.488;2023-08-08T04:22:54;3.40;;;3.10;;
4391;SDS011;2210;51.938;8.488;2023-08-08T04:26:54;3.83;;;3.03;;
4391;SDS011;2210;51.938;8.488;2023-08-08T04:30:54;4.40;;;3.20;;
4391;SDS011;2210;51.938;8.488;2023-08-08T04:34:55;6.43;;;3.80;;
4391;SDS011;2210;51.938;8.488;2023-08-08T04:38:55;6.10;;;3.63;;
4391;SDS011;2210;51.938;8.488;2023-08-08T04:43:02;9.50;;;4.07;;
4391;SDS011;2210;51.938;8.488;2023-08-08T04:47:11;8.50;;;3.67;;
4391;SDS011;2210;51.938;8.488;2023-08-08T04:51:11;6.10;;;2.90;;
4391;SDS011;2210;51.938;8.488;2023-08-08T04:55:12;3.90;;;2.47;;
4391;SDS011;2210;51.938;8.488;2023-08-08T04:59:12;3.40;;;3.07;;
4391;SDS011;2210;51.938;8.488;2023-08-08T05:03:12;4.03;;;2.70;;
4391;SDS011;2210;51.938;8.488;2023-08-08T05:07:13;7.17;;;2.90;;
4391;SDS011;2210;51.938;8.488;2023-08-08T05:11:13;5.20;;;2.60;;
4391;SDS011;2210;51.938;8.488;2023-08-08T05:15:13;9.40;;;2.93;;
4391;SDS011;2210;51.938;8.488;2023-08-08T05:19:14;2.90;;;2.60;;
4391;SDS011;2210;51.938;8.488;2023-08-08T05:23:16;6.83;;;2.43;;
4391;SDS011;2210;51.938;8.488;2023-08-08T05:27:20;4.43;;;2.90;;
4391;SDS011;2210;51.938;8.488;2023-08-08T05:31:26;4.10;;;2.93;;
4391;SDS011;2210;51.938;8.488;2023-08-08T05:35:27;5.47;;;2.70;;
4391;SDS011;2210;51.938;8.488;2023-08-08T05:39:27;5.93;;;2.80;;
4391;SDS011;2210;51.938;8.488;2023-08-08T05:43:28;6.30;;;2.67;;
4391;SDS011;2210;51.938;8.488;2023-08-08T05:47:28;6.83;;;3.10;;
4391;SDS011;2210;51.938;8.488;2023-08-08T05:51:28;5.90;;;2.40;;
4391;SDS011;2210;51.938;8.488;2023-08-08T05:55:29;4.33;;;3.20;;
4391;SDS011;2210;51.938;8.488;2023-08-08T05:59:29;4.30;;;2.80;;
4391;SDS011;2210;51.938;8.488;2023-08-08T06:03:32;4.97;;;2.57;;
4391;SDS011;2210;51.938;8.488;2023-08-08T06:07:35;3.03;;;2.40;;
4391;SDS011;2210;51.938;8.488;2023-08-08T06:11:39;3.80;;;2.30;;
4391;SDS011;2210;51.938;8.488;2023-08-08T06:15:39;3.13;;;2.80;;
4391;SDS011;2210;51.938;8.488;2023-08-08T06:19:39;5.00;;;2.83;;
4391;SDS011;2210;51.938;8.488;2023-08-08T06:23:40;5.23;;;3.30;;
4391;SDS011;2210;51.938;8.488;2023-08-08T06:27:40;6.97;;;3.73;;
4391;SDS011;2210;51.938;8.488;2023-08-08T06:31:41;4.90;;;3.80;;
4391;SDS011;2210;51.938;8.488;2023-08-08T06:35:44;3.80;;;3.10;;
4391;SDS011;2210;51.938;8.488;2023-08-08T06:39:44;6.13;;;4.33;;
4391;SDS011;2210;51.938;8.488;2023-08-08T06:43:51;12.55;;;5.30;;
4391;SDS011;2210;51.938;8.488;2023-08-08T06:47:57;6.37;;;5.37;;
4391;SDS011;2210;51.938;8.488;2023-08-08T06:52:04;9.50;;;5.40;;
4391;SDS011;2210;51.938;8.488;2023-08-08T06:56:17;10.77;;;6.43;;
4391;SDS011;2210;51.938;8.488;2023-08-08T07:00:18;11.80;;;6.30;;
4391;SDS011;2210;51.938;8.488;2023-08-08T07:04:18;13.73;;;6.20;;
4391;SDS011;2210;51.938;8.488;2023-08-08T07:08:19;11.13;;;6.07;;
4391;SDS011;2210;51.938;8.488;2023-08-08T07:12:23;9.20;;;6.30;;
4391;SDS011;2210;51.938;8.488;2023-08-08T07:16:26;15.53;;;8.17;;
4391;SDS011;2210;51.938;8.488;2023-08-08T07:20:27;12.13;;;8.27;;
4391;SDS011;2210;51.938;8.488;2023-08-08T07:24:27;10.37;;;7.80;;
4391;SDS011;2210;51.938;8.488;2023-08-08T07:28:28;12.20;;;7.63;;
4391;SDS011;2210;51.938;8.488;2023-08-08T07:32:28;8.43;;;7.40;;
4391;SDS011;2210;51.938;8.488;2023-08-08T07:36:32;10.20;;;7.20;;
4391;SDS011;2210;51.938;8.488;2023-08-08T07:40:32;12.40;;;7.40;;
4391;SDS011;2210;51.938;8.488;2023-08-08T07:44:32;13.20;;;7.20;;
4391;SDS011;2210;51.938;8.488;2023-08-08T07:48:35;11.30;;;7.90;;
4391;SDS011;2210;51.938;8.488;2023-08-08T07:52:50;12.83;;;8.80;;
4391;SDS011;2210;51.938;8.488;2023-08-08T07:56:51;18.87;;;8.97;;
4391;SDS011;2210;51.938;8.488;2023-08-08T08:00:51;11.97;;;9.87;;
4391;SDS011;2210;51.938;8.488;2023-08-08T08:04:53;9.63;;;8.30;;
4391;SDS011;2210;51.938;8.488;2023-08-08T08:08:56;13.20;;;8.60;;
4391;SDS011;2210;51.938;8.488;2023-08-08T08:12:56;14.93;;;8.70;;
4391;SDS011;2210;51.938;8.488;2023-08-08T08:16:58;12.47;;;8.80;;
4391;SDS011;2210;51.938;8.488;2023-08-08T08:21:04;13.10;;;9.23;;
4391;SDS011;2210;51.938;8.488;2023-08-08T08:25:08;10.53;;;8.67;;
4391;SDS011;2210;51.938;8.488;2023-08-08T08:29:09;12.90;;;8.43;;
4391;SDS011;2210;51.938;8.488;2023-08-08T08:33:21;10.50;;;7.70;;
4391;SDS011;2210;51.938;8.488;2023-08-08T08:37:22;12.20;;;8.50;;
4391;SDS011;2210;51.938;8.488;2023-08-08T08:41:31;10.50;;;7.93;;
4391;SDS011;2210;51.938;8.488;2023-08-08T08:45:39;12.50;;;8.57;;
4391;SDS011;2210;51.938;8.488;2023-08-08T08:49:42;13.57;;;8.23;;
4391;SDS011;2210;51.938;8.488;2023-08-08T08:53:48;11.23;;;8.20;;
4391;SDS011;2210;51.938;8.488;2023-08-08T08:57:49;12.23;;;8.53;;
4391;SDS011;2210;51.938;8.488;2023-08-08T09:01:53;9.70;;;7.63;;
4391;SDS011;2210;51.938;8.488;2023-08-08T09:05:55;9.23;;;8.10;;
4391;SDS011;2210;51.938;8.488;2023-08-08T09:10:00;14.77;;;9.60;;
4391;SDS011;2210;51.938;8.488;2023-08-08T09:14:00;13.63;;;8.00;;
4391;SDS011;2210;51.938;8.488;2023-08-08T09:18:02;11.97;;;7.77;;
4391;SDS011;2210;51.938;8.488;2023-08-08T09:22:02;10.90;;;8.17;;
4391;SDS011;2210;51.938;8.488;2023-08-08T09:26:03;12.17;;;7.40;;
4391;SDS011;2210;51.938;8.488;2023-08-08T09:30:09;12.37;;;7.87;;
4391;SDS011;2210;51.938;8.488;2023-08-08T09:34:24;9.80;;;7.17;;
4391;SDS011;2210;51.938;8.488;2023-08-08T09:38:28;9.67;;;6.90;;
4391;SDS011;2210;51.938;8.488;2023-08-08T09:42:32;6.93;;;6.03;;
4391;SDS011;2210;51.938;8.488;2023-08-08T09:46:33;6.30;;;5.70;;
4391;SDS011;2210;51.938;8.488;2023-08-08T09:50:35;6.30;;;4.77;;
4391;SDS011;2210;51.938;8.488;2023-08-08T09:54:50;6.77;;;4.27;;
4391;SDS011;2210;51.938;8.488;2023-08-08T09:58:52;4.57;;;4.07;;
4391;SDS011;2210;51.938;8.488;2023-08-08T10:02:55;5.27;;;3.80;;
4391;SDS011;2210;51.938;8.488;2023-08-08T10:06:56;3.77;;;2.90;;
4391;SDS011;2210;51.938;8.488;2023-08-08T10:10:59;3.60;;;2.20;;
4391;SDS011;2210;51.938;8.488;2023-08-08T10:15:01;2.90;;;1.90;;
4391;SDS011;2210;51.938;8.488;2023-08-08T10:19:04;6.10;;;2.10;;
4391;SDS011;2210;51.938;8.488;2023-08-08T10:23:07;4.53;;;2.37;;
4391;SDS011;2210;51.938;8.488;2023-08-08T10:27:07;4.80;;;1.60;;
4391;SDS011;2210;51.938;8.488;2023-08-08T10:31:16;1.77;;;1.53;;
4391;SDS011;2210;51.938;8.488;2023-08-08T10:35:20;4.70;;;1.53;;
4391;SDS011;2210;51.938;8.488;2023-08-08T10:39:21;3.60;;;2.23;;
4391;SDS011;2210;51.938;8.488;2023-08-08T10:43:25;3.13;;;1.47;;
4391;SDS011;2210;51.938;8.488;2023-08-08T10:47:39;9.90;;;2.80;;
4391;SDS011;2210;51.938;8.488;2023-08-08T10:51:41;1.67;;;1.23;;
4391;SDS011;2210;51.938;8.488;2023-08-08T10:55:45;2.70;;;1.30;;
4391;SDS011;2210;51.938;8.488;2023-08-08T10:59:45;4.43;;;1.40;;
4391;SDS011;2210;51.938;8.488;2023-08-08T11:03:47;1.33;;;1.23;;
4391;SDS011;2210;51.938;8.488;2023-08-08T11:07:52;1.93;;;1.57;;
4391;SDS011;2210;51.938;8.488;2023-08-08T11:11:54;1.53;;;1.17;;
4391;SDS011;2210;51.938;8.488;2023-08-08T11:15:54;3.10;;;1.30;;
4391;SDS011;2210;51.938;8.488;2023-08-08T11:19:56;2.10;;;1.33;;
4391;SDS011;2210;51.938;8.488;2023-08-08T11:23:57;2.70;;;1.57;;
4391;SDS011;2210;51.938;8.488;2023-08-08T11:27:58;3.20;;;1.20;;
4391;SDS011;2210;51.938;8.488;2023-08-08T11:32:01;5.60;;;1.60;;
4391;SDS011;2210;51.938;8.488;2023-08-08T11:36:02;1.83;;;1.10;;
4391;SDS011;2210;51.938;8.488;2023-08-08T11:40:13;1.23;;;0.83;;
4391;SDS011;2210;51.938;8.488;2023-08-08T11:44:14;1.47;;;1.03;;
4391;SDS011;2210;51.938;8.488;2023-08-08T11:48:15;3.20;;;1.00;;
4391;SDS011;2210;51.938;8.488;2023-08-08T11:52:15;1.20;;;1.10;;
4391;SDS011;2210;51.938;8.488;2023-08-08T11:56:19;1.33;;;1.00;;
4391;SDS011;2210;51.938;8.488;2023-08-08T12:00:26;5.07;;;0.93;;
4391;SDS011;2210;51.938;8.488;2023-08-08T12:04:27;2.00;;;0.90;;
4391;SDS011;2210;51.938;8.488;2023-08-08T12:08:29;3.23;;;1.00;;
4391;SDS011;2210;51.938;8.488;2023-08-08T12:12:45;1.00;;;0.90;;
4391;SDS011;2210;51.938;8.488;2023-08-08T12:16:50;2.70;;;0.90;;
4391;SDS011;2210;51.938;8.488;2023-08-08T12:20:50;1.77;;;0.97;;
4391;SDS011;2210;51.938;8.488;2023-08-08T12:24:50;1.80;;;1.00;;
4391;SDS011;2210;51.938;8.488;2023-08-08T12:28:51;2.60;;;1.13;;
4391;SDS011;2210;51.938;8.488;2023-08-08T12:32:57;1.10;;;0.80;;
4391;SDS011;2210;51.938;8.488;2023-08-08T12:36:57;3.17;;;0.93;;
4391;SDS011;2210;51.938;8.488;2023-08-08T12:40:57;1.23;;;0.80;;
4391;SDS011;2210;51.938;8.488;2023-08-08T12:45:07;2.40;;;1.10;;
4391;SDS011;2210;51.938;8.488;2023-08-08T12:49:10;1.00;;;0.90;;
4391;SDS011;2210;51.938;8.488;2023-08-08T12:53:23;1.73;;;0.70;;
4391;SDS011;2210;51.938;8.488;2023-08-08T12:57:23;1.03;;;0.73;;
4391;SDS011;2210;51.938;8.488;2023-08-08T13:01:43;0.70;;;0.70;;
4391;SDS011;2210;51.938;8.488;2023-08-08T13:05:52;1.90;;;0.80;;
4391;SDS011;2210;51.938;8.488;2023-08-08T13:09:53;8.60;;;0.90;;
4391;SDS011;2210;51.938;8.488;2023-08-08T13:13:59;1.33;;;0.87;;
4391;SDS011;2210;51.938;8.488;2023-08-08T13:22:30;1.30;;;0.80;;
4391;SDS011;2210;51.938;8.488;2023-08-08T13:26:31;1.17;;;0.90;;
4391;SDS011;2210;51.938;8.488;2023-08-08T13:30:31;1.40;;;0.80;;
4391;SDS011;2210;51.938;8.488;2023-08-08T13:34:31;1.07;;;0.90;;
4391;SDS011;2210;51.938;8.488;2023-08-08T13:38:31;2.73;;;0.93;;
4391;SDS011;2210;51.938;8.488;2023-08-08T13:42:32;1.83;;;0.93;;
4391;SDS011;2210;51.938;8.488;2023-08-08T13:46:32;2.60;;;1.47;;
4391;SDS011;2210;51.938;8.488;2023-08-08T13:50:33;3.30;;;1.77;;
4391;SDS011;2210;51.938;8.488;2023-08-08T13:54:33;1.30;;;1.10;;
4391;SDS011;2210;51.938;8.488;2023-08-08T13:58:40;2.70;;;1.07;;
4391;SDS011;2210;51.938;8.488;2023-08-08T14:02:40;3.90;;;1.20;;
4391;SDS011;2210;51.938;8.488;2023-08-08T14:06:44;2.10;;;1.00;;
4391;SDS011;2210;51.938;8.488;2023-08-08T14:10:45;1.40;;;1.00;;
4391;SDS011;2210;51.938;8.488;2023-08-08T14:14:45;1.83;;;1.10;;
4391;SDS011;2210;51.938;8.488;2023-08-08T14:18:48;2.00;;;1.23;;
4391;SDS011;2210;51.938;8.488;2023-08-08T14:22:48;1.47;;;0.90;;
4391;SDS011;2210;51.938;8.488;2023-08-08T14:26:54;2.67;;;1.10;;
4391;SDS011;2210;51.938;8.488;2023-08-08T14:30:58;1.30;;;0.90;;
4391;SDS011;2210;51.938;8.488;2023-08-08T14:35:02;2.23;;;0.70;;
4391;SDS011;2210;51.938;8.488;2023-08-08T14:39:19;2.00;;;0.87;;
4391;SDS011;2210;51.938;8.488;2023-08-08T14:43:20;3.00;;;1.17;;
4391;SDS011;2210;51.938;8.488;2023-08-08T14:47:30;1.63;;;0.80;;
4391;SDS011;2210;51.938;8.488;2023-08-08T14:51:36;1.23;;;1.03;;
4391;SDS011;2210;51.938;8.488;2023-08-08T14:55:42;1.20;;;1.03;;
4391;SDS011;2210;51.938;8.488;2023-08-08T14:59:52;1.33;;;0.90;;
4391;SDS011;2210;51.938;8.488;2023-08-08T15:03:52;1.80;;;1.27;;
4391;SDS011;2210;51.938;8.488;2023-08-08T15:07:53;1.87;;;0.80;;
4391;SDS011;2210;51.938;8.488;2023-08-08T15:11:56;1.80;;;1.07;;
4391;SDS011;2210;51.938;8.488;2023-08-08T15:15:56;1.00;;;0.87;;
4391;SDS011;2210;51.938;8.488;2023-08-08T15:19:57;0.90;;;0.70;;
4391;SDS011;2210;51.938;8.488;2023-08-08T15:24:00;1.07;;;0.90;;
4391;SDS011;2210;51.938;8.488;2023-08-08T15:28:07;0.80;;;0.80;;
4391;SDS011;2210;51.938;8.488;2023-08-08T15:32:07;1.33;;;1.00;;
4391;SDS011;2210;51.938;8.488;2023-08-08T15:36:11;1.10;;;0.80;;
4391;SDS011;2210;51.938;8.488;2023-08-08T15:40:11;3.17;;;0.93;;
4391;SDS011;2210;51.938;8.488;2023-08-08T15:44:11;5.20;;;1.10;;
4391;SDS011;2210;51.938;8.488;2023-08-08T15:48:12;1.17;;;0.80;;
4391;SDS011;2210;51.938;8.488;2023-08-08T15:52:12;1.40;;;0.97;;
4391;SDS011;2210;51.938;8.488;2023-08-08T15:56:12;2.10;;;1.03;;
4391;SDS011;2210;51.938;8.488;2023-08-08T16:00:13;1.30;;;0.90;;
4391;SDS011;2210;51.938;8.488;2023-08-08T16:04:15;3.73;;;1.10;;
4391;SDS011;2210;51.938;8.488;2023-08-08T16:08:22;1.57;;;1.00;;
4391;SDS011;2210;51.938;8.488;2023-08-08T16:12:25;1.67;;;1.00;;
4391;SDS011;2210;51.938;8.488;2023-08-08T16:16:25;2.60;;;1.30;;
4391;SDS011;2210;51.938;8.488;2023-08-08T16:20:38;3.03;;;0.93;;
4391;SDS011;2210;51.938;8.488;2023-08-08T16:24:38;0.80;;;0.80;;
4391;SDS011;2210;51.938;8.488;2023-08-08T16:28:39;1.43;;;0.80;;
4391;SDS011;2210;51.938;8.488;2023-08-08T16:32:39;3.43;;;0.97;;
4391;SDS011;2210;51.938;8.488;2023-08-08T16:36:39;1.73;;;1.17;;
4391;SDS011;2210;51.938;8.488;2023-08-08T16:40:39;2.47;;;0.93;;
4391;SDS011;2210;51.938;8.488;2023-08-08T16:44:40;0.97;;;0.80;;
4391;SDS011;2210;51.938;8.488;2023-08-08T16:48:46;1.53;;;0.90;;
4391;SDS011;2210;51.938;8.488;2023-08-08T16:52:50;3.17;;;1.03;;
4391;SDS011;2210;51.938;8.488;2023-08-08T16:56:53;1.93;;;1.07;;
4391;SDS011;2210;51.938;8.488;2023-08-08T17:00:53;2.13;;;1.00;;
4391;SDS011;2210;51.938;8.488;2023-08-08T17:04:57;0.70;;;0.70;;
4391;SDS011;2210;51.938;8.488;2023-08-08T17:09:00;2.40;;;0.90;;
4391;SDS011;2210;51.938;8.488;2023-08-08T17:13:00;1.57;;;1.00;;
4391;SDS011;2210;51.938;8.488;2023-08-08T17:17:01;0.90;;;0.80;;
4391;SDS011;2210;51.938;8.488;2023-08-08T17:21:10;0.73;;;0.73;;
4391;SDS011;2210;51.938;8.488;2023-08-08T17:25:10;3.03;;;1.17;;
4391;SDS011;2210;51.938;8.488;2023-08-08T17:29:23;1.07;;;0.70;;
4391;SDS011;2210;51.938;8.488;2023-08-08T17:33:23;0.97;;;0.70;;
4391;SDS011;2210;51.938;8.488;2023-08-08T17:37:30;1.33;;;1.00;;
4391;SDS011;2210;51.938;8.488;2023-08-08T17:41:30;2.97;;;0.70;;
4391;SDS011;2210;51.938;8.488;2023-08-08T17:49:50;1.90;;;0.93;;
4391;SDS011;2210;51.938;8.488;2023-08-08T17:53:50;1.53;;;1.00;;
4391;SDS011;2210;51.938;8.488;2023-08-08T17:57:57;1.10;;;0.80;;
4391;SDS011;2210;51.938;8.488;2023-08-08T18:01:57;2.10;;;1.20;;
4391;SDS011;2210;51.938;8.488;2023-08-08T18:05:57;1.00;;;0.90;;
4391;SDS011;2210;51.938;8.488;2023-08-08T18:10:04;4.20;;;1.10;;
4391;SDS011;2210;51.938;8.488;2023-08-08T18:14:07;2.17;;;1.30;;
4391;SDS011;2210;51.938;8.488;2023-08-08T18:18:08;4.50;;;1.23;;
4391;SDS011;2210;51.938;8.488;2023-08-08T18:22:08;5.30;;;1.53;;
4391;SDS011;2210;51.938;8.488;2023-08-08T18:26:08;4.43;;;1.07;;
4391;SDS011;2210;51.938;8.488;2023-08-08T18:30:24;2.17;;;0.90;;
4391;SDS011;2210;51.938;8.488;2023-08-08T18:34:28;2.90;;;1.10;;
4391;SDS011;2210;51.938;8.488;2023-08-08T18:38:38;3.10;;;1.30;;
4391;SDS011;2210;51.938;8.488;2023-08-08T18:42:44;1.53;;;1.20;;
4391;SDS011;2210;51.938;8.488;2023-08-08T18:46:44;2.20;;;0.90;;
4391;SDS011;2210;51.938;8.488;2023-08-08T18:50:45;2.07;;;1.07;;
4391;SDS011;2210;51.938;8.488;2023-08-08T18:54:49;1.50;;;1.20;;
4391;SDS011;2210;51.938;8.488;2023-08-08T18:59:10;1.50;;;1.40;;
4391;SDS011;2210;51.938;8.488;2023-08-08T19:03:14;1.83;;;1.20;;
4391;SDS011;2210;51.938;8.488;2023-08-08T19:07:23;1.93;;;1.00;;
4391;SDS011;2210;51.938;8.488;2023-08-08T19:11:33;2.77;;;1.33;;
4391;SDS011;2210;51.938;8.488;2023-08-08T19:15:35;2.90;;;1.50;;
4391;SDS011;2210;51.938;8.488;2023-08-08T19:19:36;1.70;;;1.17;;
4391;SDS011;2210;51.938;8.488;2023-08-08T19:23:36;3.00;;;0.80;;
4391;SDS011;2210;51.938;8.488;2023-08-08T19:27:36;2.63;;;1.20;;
4391;SDS011;2210;51.938;8.488;2023-08-08T19:31:58;1.17;;;1.00;;
4391;SDS011;2210;51.938;8.488;2023-08-08T19:36:15;1.00;;;0.90;;
4391;SDS011;2210;51.938;8.488;2023-08-08T19:40:16;0.90;;;0.80;;
4391;SDS011;2210;51.938;8.488;2023-08-08T19:44:16;1.30;;;1.20;;
4391;SDS011;2210;51.938;8.488;2023-08-08T19:48:22;1.67;;;0.80;;
4391;SDS011;2210;51.938;8.488;2023-08-08T19:52:26;2.07;;;0.90;;
4391;SDS011;2210;51.938;8.488;2023-08-08T19:56:26;1.93;;;1.10;;
4391;SDS011;2210;51.938;8.488;2023-08-08T20:00:27;2.63;;;0.93;;
4391;SDS011;2210;51.938;8.488;2023-08-08T20:04:27;1.67;;;1.00;;
4391;SDS011;2210;51.938;8.488;2023-08-08T20:08:40;0.80;;;0.80;;
4391;SDS011;2210;51.938;8.488;2023-08-08T20:12:43;5.30;;;0.80;;
4391;SDS011;2210;51.938;8.488;2023-08-08T20:16:47;1.57;;;1.10;;
4391;SDS011;2210;51.938;8.488;2023-08-08T20:20:47;1.00;;;0.90;;
4391;SDS011;2210;51.938;8.488;2023-08-08T20:24:47;0.97;;;0.90;;
4391;SDS011;2210;51.938;8.488;2023-08-08T20:28:57;1.10;;;0.90;;
4391;SDS011;2210;51.938;8.488;2023-08-08T20:33:00;1.33;;;1.17;;
4391;SDS011;2210;51.938;8.488;2023-08-08T20:37:16;3.00;;;1.13;;
4391;SDS011;2210;51.938;8.488;2023-08-08T20:41:25;1.37;;;1.10;;
4391;SDS011;2210;51.938;8.488;2023-08-08T20:45:26;4.90;;;1.70;;
4391;SDS011;2210;51.938;8.488;2023-08-08T20:49:26;1.40;;;1.20;;
4391;SDS011;2210;51.938;8.488;2023-08-08T20:53:41;5.80;;;1.50;;
4391;SDS011;2210;51.938;8.488;2023-08-08T20:57:45;2.30;;;0.97;;
4391;SDS011;2210;51.938;8.488;2023-08-08T21:01:45;2.33;;;1.00;;
4391;SDS011;2210;51.938;8.488;2023-08-08T21:05:46;1.20;;;0.97;;
4391;SDS011;2210;51.938;8.488;2023-08-08T21:09:49;1.50;;;1.00;;
4391;SDS011;2210;51.938;8.488;2023-08-08T21:13:49;1.10;;;0.87;;
4391;SDS011;2210;51.938;8.488;2023-08-08T21:17:59;2.20;;;1.10;;
4391;SDS011;2210;51.938;8.488;2023-08-08T21:22:08;2.10;;;1.10;;
4391;SDS011;2210;51.938;8.488;2023-08-08T21:26:11;1.50;;;0.93;;
4391;SDS011;2210;51.938;8.488;2023-08-08T21:30:12;2.40;;;1.10;;
4391;SDS011;2210;51.938;8.488;2023-08-08T21:34:12;3.33;;;0.87;;
4391;SDS011;2210;51.938;8.488;2023-08-08T21:38:15;1.10;;;1.00;;
4391;SDS011;2210;51.938;8.488;2023-08-08T21:42:16;2.43;;;1.10;;
4391;SDS011;2210;51.938;8.488;2023-08-08T21:46:20;2.20;;;1.07;;
4391;SDS011;2210;51.938;8.488;2023-08-08T21:50:20;3.07;;;1.10;;
4391;SDS011;2210;51.938;8.488;2023-08-08T21:54:24;2.93;;;1.20;;
4391;SDS011;2210;51.938;8.488;2023-08-08T21:58:27;1.53;;;1.23;;
4391;SDS011;2210;51.938;8.488;2023-08-08T22:02:27;10.43;;;1.13;;
4391;SDS011;2210;51.938;8.488;2023-08-08T22:06:27;2.90;;;1.20;;
4391;SDS011;2210;51.938;8.488;2023-08-08T22:10:31;1.50;;;1.00;;
4391;SDS011;2210;51.938;8.488;2023-08-08T22:14:51;1.97;;;0.90;;
4391;SDS011;2210;51.938;8.488;2023-08-08T22:18:52;1.73;;;0.90;;
4391;SDS011;2210;51.938;8.488;2023-08-08T22:22:52;2.40;;;1.50;;
4391;SDS011;2210;51.938;8.488;2023-08-08T22:26:52;1.47;;;0.97;;
4391;SDS011;2210;51.938;8.488;2023-08-08T22:30:52;2.73;;;1.23;;
4391;SDS011;2210;51.938;8.488;2023-08-08T22:34:53;1.63;;;1.00;;
4391;SDS011;2210;51.938;8.488;2023-08-08T22:38:54;3.50;;;1.37;;
4391;SDS011;2210;51.938;8.488;2023-08-08T22:42:55;2.50;;;1.20;;
4391;SDS011;2210;51.938;8.488;2023-08-08T22:46:55;2.27;;;1.47;;
4391;SDS011;2210;51.938;8.488;2023-08-08T22:50:56;2.03;;;1.10;;
4391;SDS011;2210;51.938;8.488;2023-08-08T22:54:56;3.70;;;1.17;;
4391;SDS011;2210;51.938;8.488;2023-08-08T22:58:56;1.20;;;1.10;;
4391;SDS011;2210;51.938;8.488;2023-08-08T23:02:57;2.30;;;1.10;;
4391;SDS011;2210;51.938;8.488;2023-08-08T23:07:00;3.63;;;1.40;;
4391;SDS011;2210;51.938;8.488;2023-08-08T23:11:09;5.60;;;1.40;;
4391;SDS011;2210;51.938;8.488;2023-08-08T23:15:19;1.27;;;1.17;;
4391;SDS011;2210;51.938;8.488;2023-08-08T23:19:22;1.97;;;1.10;;
4391;SDS011;2210;51.938;8.488;2023-08-08T23:23:26;1.37;;;1.27;;
4391;SDS011;2210;51.938;8.488;2023-08-08T23:27:26;2.43;;;1.40;;
4391;SDS011;2210;51.938;8.488;2023-08-08T23:31:27;2.17;;;1.30;;
4391;SDS011;2210;51.938;8.488;2023-08-08T23:35:27;2.73;;;1.20;;
4391;SDS011;2210;51.938;8.488;2023-08-08T23:39:27;2.10;;;1.60;;
4391;SDS011;2210;51.938;8.488;2023-08-08T23:43:28;2.33;;;1.50;;
4391;SDS011;2210;51.938;8.488;2023-08-08T23:47:28;1.47;;;1.37;;
4391;SDS011;2210;51.938;8.488;2023-08-08T23:51:28;2.20;;;1.80;;
4391;SDS011;2210;51.938;8.488;2023-08-08T23:55:29;2.13;;;1.80;;
4391;SDS011;2210;51.938;8.488;2023-08-08T23:59:29;1.57;;;1.20;;
